Hakodate Airport


Codes: RJCH/HKD
Name: Hakodate Airport
City: Hakodate
Country: Japan
Elevation: 151 ft.
Wikipedia:

Photos at Hakodate Airport


   Photos courtesy of SpottingLog. You can add your own sightings and photos by signing up for a free trial today.



No photos found.

Weather at Hakodate Airport


Time (UTC)DescriptionTempratureWindCloud coverageVisibilityPressureHumidity
25-Jun-2024 15:00Scattered Clouds14°C4 mph, NW46%10000m1006hPa93%
25-Jun-2024 18:00Broken Clouds14°C9 mph, NW51%10000m1007hPa88%
25-Jun-2024 21:00Overcast Clouds14°C9 mph, W86%10000m1010hPa79%
26-Jun-2024 00:00Overcast Clouds15°C11 mph, W93%10000m1011hPa74%
26-Jun-2024 03:00Broken Clouds18°C16 mph, W69%10000m1011hPa65%
26-Jun-2024 06:00Broken Clouds19°C13 mph, W77%10000m1012hPa62%
26-Jun-2024 09:00Few Clouds16°C13 mph, W21%10000m1013hPa72%
26-Jun-2024 12:00Few Clouds13°C7 mph, W11%10000m1015hPa85%
26-Jun-2024 15:00Few Clouds13°C7 mph, W12%10000m1015hPa88%
26-Jun-2024 18:00Broken Clouds13°C7 mph, W55%10000m1015hPa89%
26-Jun-2024 21:00Overcast Clouds15°C7 mph, W95%10000m1016hPa84%
27-Jun-2024 00:00Scattered Clouds18°C9 mph, SW47%10000m1015hPa72%
27-Jun-2024 03:00Clear Sky20°C11 mph, SW3%10000m1014hPa68%
27-Jun-2024 06:00Clear Sky21°C11 mph, SW2%10000m1013hPa69%
27-Jun-2024 09:00Clear Sky20°C7 mph, SW0%10000m1013hPa77%
27-Jun-2024 12:00Few Clouds18°C7 mph, SW22%10000m1013hPa87%
27-Jun-2024 15:00Scattered Clouds16°C4 mph, W38%10000m1013hPa92%
27-Jun-2024 18:00Broken Clouds17°C7 mph, SW65%10000m1012hPa92%
27-Jun-2024 21:00Broken Clouds18°C11 mph, SW81%10000m1012hPa90%
28-Jun-2024 00:00Scattered Clouds20°C16 mph, SW49%10000m1012hPa83%
28-Jun-2024 03:00Few Clouds21°C18 mph, SW21%10000m1011hPa78%
28-Jun-2024 06:00Scattered Clouds21°C13 mph, SW43%10000m1011hPa76%
28-Jun-2024 09:00Overcast Clouds20°C4 mph, SW98%10000m1012hPa86%
28-Jun-2024 12:00Overcast Clouds18°C2 mph, N99%10000m1012hPa90%
28-Jun-2024 15:00Overcast Clouds17°C0 mph, N100%10000m1012hPa91%
28-Jun-2024 18:00Overcast Clouds17°C2 mph, NW100%10000m1011hPa87%
28-Jun-2024 21:00Overcast Clouds19°C0 mph, NE100%10000m1011hPa83%
29-Jun-2024 00:00Overcast Clouds21°C4 mph, SE100%10000m1010hPa70%
29-Jun-2024 03:00Overcast Clouds22°C7 mph, SE100%10000m1008hPa69%
29-Jun-2024 06:00Overcast Clouds21°C9 mph, SE100%10000m1007hPa73%
29-Jun-2024 09:00Overcast Clouds20°C4 mph, E100%10000m1007hPa84%
29-Jun-2024 12:00Overcast Clouds18°C4 mph, E100%10000m1008hPa90%
29-Jun-2024 15:00Scattered Clouds17°C2 mph, NW30%10000m1008hPa92%
29-Jun-2024 18:00Few Clouds17°C7 mph, W15%10000m1007hPa94%
29-Jun-2024 21:00Scattered Clouds19°C7 mph, W32%10000m1008hPa93%
30-Jun-2024 00:00Broken Clouds22°C11 mph, W66%10000m1008hPa73%
30-Jun-2024 03:00Broken Clouds22°C16 mph, SW83%10000m1007hPa73%
30-Jun-2024 06:00Overcast Clouds22°C13 mph, SW91%10000m1007hPa72%
30-Jun-2024 09:00Overcast Clouds20°C11 mph, SW100%10000m1007hPa86%
30-Jun-2024 12:00Overcast Clouds19°C4 mph, W100%10000m1008hPa93%